Whale Point, California Weather observations

Data are for observation ending at time listed.
 Day   Time    Ave.   Ave.  Ave.  Vector   Max.   Stn.    Total    Solar   Ave.  
  of    of     Air    Rel.  Wind   Wind    Wind   Baro.  Precip.   Rad.    Soil  
Year   Day     Temp.  Hum.  Speed  Dir.    Gust   Pres.                    Temp. 
2014   (PST)    F      %     mph   deg.    mph     mb.     in.     W/m2     F   
------------------------------------------------------------------------------
 295    4:40   64.4    32    2.8   132      4.7   993.9    0.00       0    68.9
 295    4:50   63.2    37    1.5   135      3.7   993.9    0.00       0    68.9
 295    5:00   63.4    38    3.5   119      6.6   993.9    0.00       0    68.8
 295    5:10   64.1    36    3.2   135      5.9   993.9    0.00       0    68.8
 295    5:20   64.3    34    1.9   136      3.8   993.9    0.00       0    68.7
 295    5:30   64.0    34    1.1   124      3.4   994.2    0.00       0    68.7
 295    5:40   63.6    32    2.6    43      4.1   994.2    0.00       0    68.6
 295    5:50   63.9    30    3.8    63      7.0   994.2    0.00       0    68.6
 295    6:00   64.3    32    1.5    40      2.9   994.2    0.00       0    68.5
 295    6:10   64.2    31    1.1   115      2.8   994.2    0.00       1    68.5
 295    6:20   63.8    28    1.9   117      4.0   994.2    0.00       4    68.4
 295    6:30   63.6    31    1.0   145      2.6   994.2    0.00       7    68.4
 295    6:40   63.3    32    1.4   118      3.4   994.2    0.00      13    68.3
 295    6:50   63.4    34    1.3    86      2.4   994.6    0.00      16    68.3
 295    7:00   63.8    31    2.7    84      4.5   994.6    0.00      18    68.2
 295    7:10   64.1    29    2.6    85      4.7   994.6    0.00      20    68.2
 295    7:20   64.2    28    2.9    81      5.0   994.9    0.00      20    68.1
 295    7:30   64.3    30    2.7    82      4.7   994.9    0.00      21    68.1
 295    7:40   64.4    29    3.5    78      5.6   994.9    0.00      24    68.0
 295    7:50   64.4    32    1.4   126      3.7   995.3    0.00      31    68.0
 295    8:00   64.1    35    0.5   152      1.5   995.3    0.00      52    67.9
 295    8:10   65.6    34    0.5    93      1.4   995.3    0.00     320    67.9
 295    8:20   67.7    32    0.4    96      1.2   995.6    0.00     340    67.8
 295    8:30   69.8    30    0.7   181      1.6   995.6    0.00     404    67.7
 295    8:40   68.8    31    2.0   217      3.4   995.9    0.00     393    67.7
 295    8:50   67.8    32    1.9   217      3.8   995.9    0.00     436    67.6
 295    9:00   67.4    32    2.3   214      3.5   995.9    0.00     489    67.6
 295    9:10   67.8    32    2.5   198      3.7   995.9    0.00     505    67.6
 295    9:20   67.8    35    2.4   191      3.8   995.9    0.00     541    67.5
 295    9:30   68.7    36    2.4   190      3.7   995.9    0.00     564    67.5
 295    9:40   67.8    39    3.3   200      5.0   995.9    0.00     593    67.5
 295    9:50   68.5    37    2.6   185      5.0   995.9    0.00     604    67.4
 295   10:00   70.4    35    2.9   186      4.5   995.9    0.00     607    67.4
 295   10:10   70.6    34    3.3   190      5.4   995.9    0.00     610    67.4
 295   10:20   68.6    45    4.8   202      7.2   995.9    0.00     673    67.4
 295   10:30   65.5    54    4.0   200      6.3   996.3    0.00     679    67.4
 295   10:40   65.2    54    3.7   212      5.6   996.3    0.00     692    67.4
 295   10:50   65.6    50    4.4   221      6.4   995.9    0.00     709    67.4
 295   11:00   65.9    48    4.4   215      6.1   996.3    0.00     721    67.4
 295   11:10   66.4    46    4.6   198      7.2   996.3    0.00     732    67.5
 295   11:20   67.5    44    4.7   190      8.0   996.3    0.00     642    67.5
 295   11:30   66.7    52    4.2   198      7.1   995.9    0.00     547    67.5
 295   11:40   66.4    56    4.2   218      6.9   995.9    0.00     661    67.6
 295   11:50   66.7    50    5.1   223     12.1   995.9    0.00     673    67.6
 295   12:00   66.6    44    5.4   214     10.6   995.9    0.00     755    67.7
 295   12:10   67.0    52    4.7   241     11.5   995.9    0.00     723    67.7
 295   12:20   67.0    52    4.6   210      8.1   995.6    0.00     716    67.8
 295   12:30   67.8    46    5.0   201      7.8   994.9    0.00     672    67.9
 295   12:40   68.7    44    5.3   204      8.0   994.9    0.00     694    67.9
 295   12:50   69.4    49    5.3   202      8.3   995.3    0.00     710    68.0
 295   13:00   68.8    53    6.1   206      9.3   995.3    0.00     672    68.1
 295   13:10   66.9    56    5.0   206      7.7   995.3    0.00     666    68.2
 295   13:20   68.4    48    4.7   212      7.0   994.9    0.00     676    68.3
 295   13:30   68.5    46    3.7   221      6.7   994.9    0.00     621    68.3
 295   13:40   69.8    41    3.0   221      5.4   994.6    0.00     565    68.4
 295   13:50   69.5    42    4.4   224      6.1   994.6    0.00     644    68.5
 295   14:00   69.5    45    3.9   205      6.6   994.6    0.00     507    68.6
 295   14:10   69.2    47    3.9   222      6.7   994.6    0.00     561    68.8
 295   14:20   69.5    47    4.5   207      7.1   994.6    0.00     542    68.9
 295   14:30   69.1    49    3.7   206      6.4   994.6    0.00     520    69.0
 295   14:40   70.5    46    3.0   212      5.3   994.6    0.00     465    69.1
 295   14:50   70.0    46    2.5   234      4.0   994.2    0.00     387    69.2
 295   15:00   69.9    40    2.8   226      4.5   994.2    0.00     357    69.4
 295   15:10   71.6    38    2.3   187      4.2   993.9    0.00     314    69.5
 295   15:20   70.7    46    2.8   229      5.3   993.9    0.00     327    69.6
 295   15:30   69.6    48    4.5   219      6.8   993.9    0.00     268    69.8
 295   15:40   68.0    59    4.7   201      7.7   993.9    0.00     230    69.9
 295   15:50   67.6    58    3.7   204      7.4   994.2    0.00     238    70.1
 295   16:00   68.5    54    3.4   219      5.2   994.2    0.00     195    70.2
 295   16:10   67.1    56    3.4   226      5.6   993.9    0.00     177    70.3
 295   16:20   68.1    56    3.2   223      5.0   993.9    0.00     200    70.4
 295   16:30   67.9    59    2.9   223      5.3   993.6    0.00     102    70.5
 295   16:40   66.3    62    0.9   234      3.5   993.9    0.00      64    70.6
 295   16:50   66.9    59    0.6   349      1.8   993.9    0.00      95    70.7
 295   17:00   66.1    60    0.2   277      1.3   993.9    0.00      36    70.9
 295   17:10   65.3    64    1.9   186      3.9   993.9    0.00      13    71.0
 295   17:20   63.3    72    3.0   187      5.6   994.2    0.00       8    71.0
 295   17:30   62.1    77    2.6   175      4.7   994.2    0.00       2    71.1
 295   17:40   61.5    77    2.5   129      4.5   994.2    0.00       1    71.2
 295   17:50   62.0    72    0.8    91      2.1   994.2    0.00       0    71.3
 295   18:00   61.7    74    0.7   145      2.0   994.2    0.00       0    71.3
 295   18:10   61.5    72    0.9   154      2.8   994.2    0.00       0    71.4
 295   18:20   61.5    74    1.4    10      2.8   994.6    0.00       0    71.4
 295   18:30   61.0    74    1.5    60      4.3   994.6    0.00       0    71.5
 295   18:40   60.6    72    0.8   134      2.9   994.2    0.00       0    71.5
 295   18:50   61.2    64    1.3   153      3.6   994.2    0.00       0    71.5
 295   19:00   61.2    65    1.6     4      3.4   994.2    0.00       0    71.5
 295   19:10   60.8    64    2.2    65      3.5   993.9    0.00       0    71.5
 295   19:20   61.5    60    1.8   160      3.8   994.2    0.00       0    71.5
 295   19:30   61.5    67    0.5   349      1.9   994.2    0.00       0    71.5
 295   19:40   62.8    47    1.2    31      2.9   993.9    0.00       0    71.5
 295   19:50   66.5    34    0.8    72      1.9   994.2    0.00       0    71.5
 295   20:00   68.1    30    0.8    54      2.3   994.2    0.00       0    71.4
 295   20:10   70.0    27    3.0    82      6.5   994.2    0.00       0    71.4
 295   20:20   70.1    28    2.2   150      5.0   994.2    0.00       0    71.3
 295   20:30   64.0    48    2.0   168      3.9   994.6    0.00       0    71.3
 295   20:40   63.0    49    1.0   109      2.1   994.6    0.00       0    71.3
 295   20:50   64.4    42    2.2    39      5.6   994.6    0.00       0    71.3
 295   21:00   67.3    33    2.8   124      6.0   994.6    0.00       0    71.2
 295   21:10   64.4    44    2.6   176      5.3   994.6    0.00       0    71.2
 295   21:20   62.7    54    1.0   149      2.6   994.6    0.00       0    71.2
 295   21:30   61.9    60    1.2   158      3.6   994.9    0.00       0    71.1
 295   21:40   61.6    60    1.2   129      2.8   994.9    0.00       0    71.1
 295   21:50   61.7    60    1.9     0      3.1   994.9    0.00       0    71.0
 295   22:00   62.1    56    1.6   166      4.1   994.9    0.00       0    71.0
 295   22:10   63.0    54    1.5    79      2.6   994.9    0.00       0    70.9
 295   22:20   65.0    44    1.8   113      2.7   994.9    0.00       0    70.8
 295   22:30   65.8    38    1.4   119      2.6   994.9    0.00       0    70.8
 295   22:40   65.6    38    1.1   360      3.1   994.6    0.00       0    70.7
 295   22:50   66.4    34    1.0    17      2.6   994.9    0.00       0    70.7
 295   23:00   67.0    33    1.2    28      2.0   994.6    0.00       0    70.6
 295   23:10   67.7    31    0.7    26      2.3   994.6    0.00       0    70.6
 295   23:20   68.1    28    2.8   102      6.4   994.6    0.00       0    70.5
 295   23:30   69.9    26    3.7    86      6.7   994.6    0.00       0    70.4
 295   23:40   70.3    25    3.5    97      6.2   994.2    0.00       0    70.4
 295   23:50   69.6    27    1.7   167      4.2   994.6    0.00       0    70.3
 296    0:00   67.9    29    0.4    40      1.7   994.6    0.00       0    70.3
 296    0:10   69.0    28    2.1    53      3.9   994.6    0.00       0    70.3
 296    0:20   69.8    26    3.3    69      5.5   994.6    0.00       0    70.2
 296    0:30   69.0    27    2.9    40      4.7   994.2    0.00       0    70.1
 296    0:40   69.2    28    1.1    93      2.2   994.2    0.00       0    70.1
 296    0:50   69.3    28    0.7   112      1.6   994.2    0.00       0    70.0
 296    1:00   69.4    27    0.9    30      1.9   994.6    0.00       0    70.0
 296    1:10   69.8    27    1.5    41      2.9   994.6    0.00       0    69.9
 296    1:20   68.8    27    3.9    64      5.8   994.6    0.00       0    69.9
 296    1:30   67.6    28    3.2    55      7.3   994.6    0.00       0    69.8
 296    1:40   67.8    28    5.7    67      8.5   994.6    0.00       0    69.7
 296    1:50   68.6    27    5.9    80      8.7   994.2    0.00       0    69.7
 296    2:00   69.3    26    3.7    83      7.3   994.2    0.00       0    69.6
 296    2:10   68.9    26    2.5    60      4.4   994.2    0.00       0    69.6
 296    2:20   68.8    27    2.8    75      6.1   994.6    0.00       0    69.5
 296    2:30   68.6    27    6.3    62      9.7   994.2    0.00       0    69.5
 296    2:40   68.1    27    3.1    72      7.9   994.2    0.00       0    69.4
 296    2:50   67.6    28    5.5    61      8.4   994.2    0.00       0    69.4
 296    3:00   68.3    27    6.4    65      8.8   993.9    0.00       0    69.3
 296    3:10   68.5    27    5.7    66      8.8   993.9    0.00       0    69.3
 296    3:20   66.0    43    2.4   161      4.7   993.9    0.00       0    69.2
 296    3:30   61.0    63    1.6   205      4.1   993.9    0.00       0    69.2
 296    3:40   59.7    69    0.6   356      2.1   994.2    0.00       0    69.1
 296    3:50   58.9    74    1.7    16      3.9   994.2    0.00       0    69.1
 296    4:00   59.2    71    0.5   225      1.8   994.2    0.00       0    69.0
 296    4:10   59.9    69    1.2    92      3.1   994.2    0.00       0    69.0
 296    4:20   61.5    58    2.1    56      4.3   994.2    0.00       0    68.9
 296    4:30   62.8    51    1.8    13      4.9   994.2    0.00       0    68.9

Return to Whale Point graphs page.


Western Regional Climate Center,wrcc@dri.edu